Local Weather Ingen bokad jour idag Wednesday 27th of January
Flygplats METAR TAF
Airport METAR TAF
ESSL - Linköping271050Z 22004KT 200V260 9999 OVC004 M04/M04 Q1007 RWY 29 RIME OR FROST 51-100 PCT BA GOOD=271130Z 2712/2719 23004KT 9999 BKN004 TEMPO 2712/2718 SCT004=
ESCF - Malmen271050Z VRB02KT 9999 OVC002 M04/M04 Q1007=AMD 271015Z 2709/2718 27004KT 9999 BKN004 TEMPO 2709/2712 1500 BR BKN002 PROB40 2712/2718 SCT008 BKN020 RMK MIL=
ESSP - Norrköping271050Z 26006KT CAVOK M04/M06 Q1007 RWY 27 RIME OR FROST 51-100 PCT LESS THAN 1 MM BA GOOD=271130Z 2712/2714 26006KT CAVOK=
ESGJ - Jönköping271050Z 00000KT 9999 OVC009 M04/M04 Q1006=271130Z 2712/2721 VRB03KT 9999 BKN015 PROB40 2712/2718 2000 BR -SN BKN004=
ESKN - Skavsta271050Z 30006KT CAVOK M05/M07 Q1007 RWY 26 FROZEN RUTS OR RIDGES 0-10 PCT 1 MM BA GOOD=271130Z 2712/2812 30006KT CAVOK PROB40 2802/2812 2000 SN VV007=
ESSV - Visby271050Z 32011KT 9999 BKN010 M01/M03 Q1006 RWY 03 ICE 0-10 PCT FCT 0.77=271115Z 2712/2720 33013KT 9999 SCT010 BKN015=
ESGG - Göteborg271050Z 15004KT 0250 R03/0500N R21/0450N FZFG VV002 M01/M01 Q1006 RWY 21 DRY SNOW 51-100 PCT BA GOOD=271130Z 2712/2812 14005KT 0200 FZFG VV002 BECMG 2712/2714 5000 NSW PROB40 2713/2715 SCT004 BKN009 BECMG 2715/2717 SCT009 PROB40 2717/2812 BKN004=
FLEET STATUS
Flygplan Tid till service Tid till flygstopp Flygtid Landningar
Aircraft To service To stop Total time Landings
SE-IUD44.7 h54.7 h12 155.3 h24 765 st.
SE-KIT0.8 h5.8 h12 349.2 h24 164 st.
(1) Belysning innertak och kursgyro U/S
SE-KMH43.9 h48.9 h16 406.1 h61 211 st.
SE-LRL39.2 h49.2 h1 110.8 h2 132 st.
SE-MEB52.6 h62.6 h1 647.4 h5 034 st.
SE-MEKN/AN/A3 666.0 h3 486 st.
(1) Transponder ur funktion.
(2) Klaffindikering fungerar dåligt i luften.
(3) Felindikering på spånvarning. Samråd med Håkan tagen. Blandningen är lågt inställd. Vid grovmagring kuperar man motorn.
PPR
Ankomst Avgång Flygplan Namn Bränsle
Arrival Departure Aircraft Name Fuel
27/1 06:1527/1 07:00SE-KDEMichael Lyckholm100LL
NOTAM
>>> ESSL/LINKOPING/SAAB <<<
+(SNOWTAM 0042 A)ESSL B)01270626 C)11 F)3/3/3 G)XX/XX/XX H)5/5/5 N)3/5 R)4/3) REPORTED: 27 JAN 2021 06:26 + AERODROME CAUTION ADVISED SHALLOW DITCHES SOUTH OF RWY 11/29 DUE WIP. FROM: 27 JAN 2021 09:34 TO: 26 FEB 2021 12:00 EST
+ AERODROME CONTROL TOWER (TWR) HOURS OF SERVICE ARE NOW MON 0520-1730, TUE 0520-1600, WED 0615-1730, THU 0520-1600, FRI 0615-1730, SAT 0520-0600, SUN 1610-1730 FROM: 25 JAN 2021 00:00 TO: 31 JAN 2021 23:59
+ IFR TRAINING AND SCHOOL FLIGHTS REQUIRE PPR FROM ATS FOR APCHS AND TGL. ATS TEL +46 (0)60646213 FROM: 22 JAN 2021 10:26 TO: 26 FEB 2021 11:00 EST
+ OSTGOTA APPROACH CONTROL SERVICE (APP) HOURS OF SERVICE CHANGED TO MON-SUN 0530-2200. SERVICE PROVIDED ACCORDING TO ES AIP ENR 2.1 FROM: 02 JAN 2021 04:55 TO: 07 FEB 2021 22:50
+ INFORMATION REGARDING PPR HOSP AND SAR FLIGHTS OUTSIDE HR OF AD ADMINISTRATION CONTACT JRCC FROM: 23 DEC 2020 09:52 TO: 01 MAR 2021 07:00 EST
>>> ESSP/NORRKOPING/KUNGSANGEN <<<
+(SNOWTAM 0029 A)ESSP B)01270649 C)09 F)3/NIL/3 G)XX/XX/XX H)5/5/5 T)RWY 09 FIRST PART 100 PER CENT RIME, SECOND PART NIL, THIRD PART 100 PER CENT RIME, ESTIMATED SURFACE FRICTION GOOD) REPORTED: 27 JAN 2021 06:49 + CRANE ERECTED IN APCH RWY 09 PSN 583451N 0161020E HGT 224FT AGL ELEV 348FT AMSL. LGTD F R. SCHEDULE: MON THU 0600-1600 FROM: 25 JAN 2021 06:00 TO: 28 JAN 2021 16:00
+ OCA(OCH) CHANGED FOR LOC APCH RWY 09 : 600 FT (580 FT) OCA(OCH) CHANGED FOR CIRCLING S RWY CAT B : 650 FT (610 FT) OCA(OCH) CHANGED FOR NDB APCH RWY 27: 600 FT (568 FT) OCA(OCH) CHANGED FOR RNP LNAV APCH RWY 09: 600 FT (587 FT) OCA (OCH) CHANGED FOR RNP LNAV/VNAV APCH RWY 09: CAT A: 480 FT (467 FT) CAT B: 490 FT (477 FT) CAT C: 500 FT (487 FT) CAT D: 510 FT (497 FT) SCHEDULE: MON THU 0600-1600 FROM: 25 JAN 2021 06:00 TO: 28 JAN 2021 16:00
+ OCA/OCH CHANGED FOR RNP LPV APCH RWY 09: CAT A 314FT(301FT), CAT B 326FT(313FT) CAT C 334FT(321FT) CAT D 345FT(332FT) DUE CRANES ERECTED IN APCH RWY 09 AREA 583505N 0161241E, 583502N 0161245E, 583501N 0161241E, 583503N 0161239E ELEV 184FT AMSL HGT 158FT AGL. FROM: 22 JAN 2021 00:00 TO: 23 APR 2021 23:59
+ OMNI DIRECTIONAL DEPARTURE RWY 27 TEMPO CHANGED, CLIMB STRAIGHT AHEAD WITH MNM 310FT/NM(5,1 PERCENT) TO MNM TURNING ALT 700FT. CONTINUE CLIMB TO APPROPRIATE MSA. FROM: 22 JAN 2021 00:00 TO: 23 APR 2021 23:59
+ AERODROME CONTROL TOWER (TWR) HOURS OF SERVICE ARE NOW MON-FRI 0700-1330, SAT-SUN CLSD FROM: 11 JAN 2021 00:00 TO: 31 JAN 2021 23:59
+ FUEL AVAILABILITY HOURS OF SERVICE ARE NOW MON-FRI 0700-1230, SAT-SUN CLSD FROM: 11 JAN 2021 00:00 TO: 31 JAN 2021 23:59
+ OSTGOTA APPROACH CONTROL SERVICE (APP) HOURS OF SERVICE CHANGED TO MON-SUN 0530-2200. SERVICE PROVIDED ACCORDING TO ES AIP ENR 2.1 FROM: 02 JAN 2021 04:55 TO: 07 FEB 2021 22:50
+ RWY 11/29 CLSD FROM: 11 NOV 2020 12:51 TO: 05 FEB 2021 12:00 EST
>>> ESCF/LINKOPING/MALMEN <<<
+(SNOWTAM 0029 A)ESCF B)01270620 C)01 F)1/1/1 G)XX/XX/XX H)5/5/5 N)3/GOOD B)01270620 C)08 F)1/3/3 G)XX/XX/XX H)5/5/3 N)3/GOOD R)134/MEDIUM) REPORTED: 27 JAN 2021 06:20 - OSTGOTA APPROACH CONTROL SERVICE (APP) HOURS OF SERVICE CHANGED TO MON-SUN 0530-2200. SERVICE PROVIDED ACCORDING TO ES AIP ENR 2.1 FROM: 02 JAN 2021 04:55 TO: 07 FEB 2021 22:50